createdAt,value
2022-08-07T00:00:51.406Z,100213.31
2022-08-07T00:03:17.815Z,100214.47
2022-08-07T00:05:44.599Z,100216.94
2022-08-07T00:08:12.740Z,100216.53
2022-08-07T00:10:48.289Z,100216.72
2022-08-07T00:13:25.855Z,100215.97
2022-08-07T00:15:53.835Z,100213.81
2022-08-07T00:18:27.536Z,100218.16
2022-08-07T00:21:01.838Z,100216.53
2022-08-07T00:23:31.905Z,100223.22
2022-08-07T00:26:06.912Z,100210.44
2022-08-07T00:28:46.225Z,100210.34
2022-08-07T00:31:22.202Z,100206.88
2022-08-07T00:33:48.860Z,100197.31
2022-08-07T00:36:16.786Z,100194.78
2022-08-07T00:38:43.469Z,100181.84
2022-08-07T00:41:15.096Z,100202.97
2022-08-07T00:44:00.496Z,100199.25
2022-08-07T00:46:29.686Z,100197.69
2022-08-07T00:48:57.583Z,100199.53
2022-08-07T00:51:57.112Z,100193.50
2022-08-07T00:54:19.668Z,100179.66
2022-08-07T00:56:46.411Z,100183.41
2022-08-07T00:59:16.765Z,100188.78
2022-08-07T01:01:46.772Z,100192.44
2022-08-07T01:04:24.865Z,100191.69
2022-08-07T01:06:51.646Z,100189.31
2022-08-07T01:09:51.185Z,100189.66
2022-08-07T01:12:29.191Z,100196.31
2022-08-07T01:14:57.110Z,100178.28
2022-08-07T01:17:29.267Z,100187.31
2022-08-07T01:20:01.872Z,100179.66
2022-08-07T01:22:30.877Z,100185.63
2022-08-07T01:24:58.796Z,100174.81
2022-08-07T01:27:25.368Z,100173.19
2022-08-07T01:29:59.283Z,100180.28
2022-08-07T01:32:27.701Z,100188.53
2022-08-07T01:34:55.810Z,100174.81
2022-08-07T01:37:23.827Z,100175.25
2022-08-07T01:39:50.405Z,100183.09
2022-08-07T01:42:38.597Z,100181.47
2022-08-07T01:45:09.757Z,100185.06
2022-08-07T01:48:18.155Z,100179.88
2022-08-07T01:50:30.665Z,100188.53
2022-08-07T01:52:59.143Z,100189.47
2022-08-07T01:55:29.450Z,100170.59
2022-08-07T01:58:06.744Z,100177.41
2022-08-07T02:01:10.401Z,100182.06
2022-08-07T02:03:51.029Z,100171.69
2022-08-07T02:06:31.591Z,100181.50
2022-08-07T02:09:03.778Z,100176.31
2022-08-07T02:12:04.061Z,100176.38
2022-08-07T02:14:35.817Z,100185.06
2022-08-07T02:17:07.107Z,100181.00
2022-08-07T02:20:07.508Z,100174.94
2022-08-07T02:22:25.666Z,100182.75
2022-08-07T02:24:54.142Z,100181.25
2022-08-07T02:27:22.873Z,100185.31
2022-08-07T02:29:54.139Z,100187.78
2022-08-07T02:32:29.846Z,100170.50
2022-08-07T02:34:58.620Z,100184.31
2022-08-07T02:37:28.577Z,100171.34
2022-08-07T02:40:29.863Z,100180.13
2022-08-07T02:42:50.639Z,100180.13
2022-08-07T02:46:00.460Z,100174.06
2022-08-07T02:48:10.068Z,100180.38
2022-08-07T02:50:41.778Z,100181.28
2022-08-07T02:53:11.289Z,100178.59
2022-08-07T02:56:03.251Z,100173.22
2022-08-07T02:58:33.433Z,100173.53
2022-08-07T03:01:02.157Z,100161.94
2022-08-07T03:03:49.643Z,100173.38
2022-08-07T03:06:26.193Z,100158.72
2022-08-07T03:09:01.600Z,100170.28
2022-08-07T03:11:29.423Z,100162.53
2022-08-07T03:14:02.236Z,100169.59
2022-08-07T03:16:30.622Z,100167.38
2022-08-07T03:18:59.460Z,100172.66
2022-08-07T03:21:27.900Z,100163.13
2022-08-07T03:24:19.600Z,100164.75
2022-08-07T03:26:51.199Z,100165.75
2022-08-07T03:29:29.637Z,100164.91
2022-08-07T03:31:57.308Z,100173.06
2022-08-07T03:34:28.198Z,100155.63
2022-08-07T03:36:57.350Z,100169.50
2022-08-07T03:39:59.851Z,100161.59
2022-08-07T03:42:15.169Z,100162.53
2022-08-07T03:44:42.354Z,100153.16
2022-08-07T03:47:14.839Z,100146.34
2022-08-07T03:49:48.007Z,100149.03
2022-08-07T03:52:26.360Z,100155.44
2022-08-07T03:54:57.402Z,100156.69
2022-08-07T03:58:34.574Z,100166.28
2022-08-07T04:00:14.230Z,100157.44
2022-08-07T04:02:41.521Z,100163.25
2022-08-07T04:05:09.035Z,100168.94
2022-08-07T04:07:42.503Z,100163.59
2022-08-07T04:10:15.406Z,100162.91
2022-08-07T04:12:47.271Z,100165.44
2022-08-07T04:15:15.779Z,100162.91
2022-08-07T04:18:56.543Z,100162.81
2022-08-07T04:20:31.144Z,100165.38
2022-08-07T04:23:01.938Z,100168.69
2022-08-07T04:25:38.993Z,100170.56
2022-08-07T04:28:09.946Z,100170.31
2022-08-07T04:30:55.402Z,100161.44
2022-08-07T04:33:26.272Z,100162.50
2022-08-07T04:35:54.457Z,100157.41
2022-08-07T04:38:22.041Z,100172.72
2022-08-07T04:40:51.991Z,100185.66
2022-08-07T04:44:11.264Z,100186.47
2022-08-07T04:46:34.713Z,100177.59
2022-08-07T04:49:24.549Z,100178.44
2022-08-07T04:52:19.680Z,100177.34
2022-08-07T04:55:01.590Z,100181.69
2022-08-07T04:58:11.902Z,100184.91
2022-08-07T05:00:39.149Z,100182.22
2022-08-07T05:03:59.713Z,100182.22
2022-08-07T05:06:20.132Z,100186.47
2022-08-07T05:09:04.824Z,100194.22
2022-08-07T05:11:57.289Z,100194.97
2022-08-07T05:14:55.283Z,100191.34
2022-08-07T05:17:51.643Z,100187.63
2022-08-07T05:20:10.022Z,100198.06
2022-08-07T05:22:39.073Z,100192.72
2022-08-07T05:25:08.725Z,100190.44
2022-08-07T05:28:02.574Z,100183.19
2022-08-07T05:30:32.330Z,100207.81
2022-08-07T05:33:03.216Z,100192.63
2022-08-07T05:35:33.429Z,100204.44
2022-08-07T05:38:09.018Z,100202.34
2022-08-07T05:40:50.740Z,100205.66
2022-08-07T05:43:19.331Z,100214.25
2022-08-07T05:46:06.370Z,100203.50
2022-08-07T05:48:33.994Z,100211.69
2022-08-07T05:51:01.559Z,100210.50
2022-08-07T05:54:13.221Z,100201.47
2022-08-07T05:56:19.074Z,100214.75
2022-08-07T05:58:49.231Z,100206.75
2022-08-07T06:01:21.042Z,100216.50
2022-08-07T06:03:54.016Z,100215.03
2022-08-07T06:06:29.426Z,100215.44
2022-08-07T06:08:57.713Z,100212.09
2022-08-07T06:11:25.813Z,100203.72
2022-08-07T06:14:11.763Z,100201.19
2022-08-07T06:16:40.263Z,100205.75
2022-08-07T06:19:08.443Z,100203.41
2022-08-07T06:22:14.300Z,100215.50
2022-08-07T06:24:45.385Z,100201.72
2022-08-07T06:27:59.718Z,100201.25
2022-08-07T06:30:32.405Z,100195.22
2022-08-07T06:32:57.474Z,100197.47
2022-08-07T06:35:23.843Z,100202.38
2022-08-07T06:37:57.249Z,100201.59
2022-08-07T06:40:35.038Z,100197.72
2022-08-07T06:43:03.450Z,100197.78
2022-08-07T06:45:33.791Z,100200.78
2022-08-07T06:48:02.860Z,100195.03
2022-08-07T06:50:31.744Z,100188.94
2022-08-07T06:53:00.885Z,100189.25
2022-08-07T06:55:47.977Z,100186.72
2022-08-07T06:58:27.421Z,100182.19
2022-08-07T07:00:56.034Z,100170.31
2022-08-07T07:03:26.384Z,100177.13
2022-08-07T07:06:11.302Z,100175.84
2022-08-07T07:08:39.932Z,100181.88
2022-08-07T07:12:08.495Z,100177.88
2022-08-07T07:14:02.828Z,100166.75
2022-08-07T07:16:45.231Z,100168.41
2022-08-07T07:19:55.895Z,100168.53
2022-08-07T07:22:33.776Z,100168.50
2022-08-07T07:25:14.214Z,100172.03
2022-08-07T07:27:56.147Z,100169.22
2022-08-07T07:30:39.756Z,100170.38
2022-08-07T07:33:11.617Z,100165.25
2022-08-07T07:35:43.718Z,100157.53
2022-08-07T07:38:12.786Z,100157.38
2022-08-07T07:40:42.156Z,100150.03
2022-08-07T07:43:15.227Z,100145.59
2022-08-07T07:46:37.885Z,100140.91
2022-08-07T07:48:36.234Z,100136.09
2022-08-07T07:51:08.024Z,100144.19
2022-08-07T07:53:48.179Z,100137.03
2022-08-07T07:56:19.248Z,100139.19
2022-08-07T07:59:00.208Z,100139.53
2022-08-07T08:02:01.999Z,100130.78
2022-08-07T08:04:25.706Z,100133.75
2022-08-07T08:06:54.789Z,100126.75
2022-08-07T08:09:25.052Z,100117.47
2022-08-07T08:12:03.125Z,100120.31
2022-08-07T08:14:36.458Z,100119.94
2022-08-07T08:17:55.600Z,100123.31
2022-08-07T08:20:17.733Z,100114.47
2022-08-07T08:22:55.884Z,100104.59
2022-08-07T08:25:41.867Z,100106.78
2022-08-07T08:28:11.807Z,100106.44
2022-08-07T08:30:51.485Z,100100.13
2022-08-07T08:33:25.368Z,100093.56
2022-08-07T08:35:57.353Z,100092.09
2022-08-07T08:38:30.009Z,100093.94
2022-08-07T08:41:17.154Z,100088.84
2022-08-07T08:44:01.670Z,100087.84
2022-08-07T08:46:38.955Z,100081.06
2022-08-07T08:49:16.468Z,100083.03
2022-08-07T08:52:14.437Z,100085.41
2022-08-07T08:55:04.750Z,100086.94
2022-08-07T08:57:58.427Z,100078.03
2022-08-07T09:00:30.288Z,100070.13
2022-08-07T09:03:14.060Z,100074.03
2022-08-07T09:06:04.482Z,100071.56
2022-08-07T09:08:49.654Z,100058.56
2022-08-07T09:11:24.191Z,100066.88
2022-08-07T09:14:02.292Z,100058.59
2022-08-07T09:16:59.013Z,100067.59
2022-08-07T09:19:53.611Z,100060.50
2022-08-07T09:24:29.386Z,100047.56
2022-08-07T09:25:37.683Z,100047.38
2022-08-07T09:28:06.165Z,100048.94
2022-08-07T09:31:08.502Z,100044.38
2022-08-07T09:33:58.897Z,100044.38
2022-08-07T09:36:37.304Z,100038.38
2022-08-07T09:39:54.447Z,100035.75
2022-08-07T09:42:37.871Z,100037.78
2022-08-07T09:47:27.346Z,100035.28
2022-08-07T09:50:02.499Z,100024.13
2022-08-07T09:52:33.648Z,100020.53
2022-08-07T09:55:29.525Z,100008.09
2022-08-07T09:58:42.361Z,100009.06
2022-08-07T10:01:50.954Z,99999.91
2022-08-07T10:04:53.052Z,100005.75
2022-08-07T10:07:39.663Z,99989.97
2022-08-07T10:11:00.225Z,99984.63
2022-08-07T10:14:01.960Z,99983.22
2022-08-07T10:16:59.860Z,99976.63
2022-08-07T10:19:46.538Z,99980.06
2022-08-07T10:22:24.892Z,99969.16
2022-08-07T10:25:20.824Z,99972.75
2022-08-07T10:28:29.210Z,99964.44
2022-08-07T10:31:21.900Z,99957.16
2022-08-07T10:34:17.803Z,99952.63
2022-08-07T10:37:48.393Z,99948.44
2022-08-07T10:40:18.013Z,99944.22
2022-08-07T10:43:07.282Z,99955.41
2022-08-07T10:45:57.570Z,99944.97
2022-08-07T10:49:06.642Z,99947.59
2022-08-07T10:52:01.582Z,99936.75
2022-08-07T10:55:01.780Z,99937.59
2022-08-07T10:57:43.165Z,99935.34
2022-08-07T11:00:36.998Z,99930.31
2022-08-07T11:03:12.848Z,99930.25
2022-08-07T11:06:01.125Z,99929.00
2022-08-07T11:08:43.913Z,99936.50
2022-08-07T11:11:15.389Z,99921.72
2022-08-07T11:14:43.718Z,99924.81
2022-08-07T11:16:54.630Z,99934.16
2022-08-07T11:19:30.801Z,99926.25
2022-08-07T11:22:26.366Z,99927.53
2022-08-07T11:25:09.245Z,99930.41
2022-08-07T11:28:01.391Z,99931.06
2022-08-07T11:30:42.004Z,99916.34
2022-08-07T11:33:15.008Z,99925.41
2022-08-07T11:36:10.111Z,99910.94
2022-08-07T11:38:50.587Z,99910.88
2022-08-07T11:41:30.958Z,99910.47
2022-08-07T11:44:22.876Z,99905.09
2022-08-07T11:47:11.635Z,99907.78
2022-08-07T11:50:30.172Z,99906.28
2022-08-07T11:53:05.123Z,99906.03
2022-08-07T11:56:15.764Z,99900.22
2022-08-07T12:00:07.642Z,99890.84
2022-08-07T12:02:36.716Z,99889.41
2022-08-07T12:05:47.414Z,99894.66
2022-08-07T12:08:47.711Z,99881.19
2022-08-07T12:11:32.418Z,99885.78
2022-08-07T12:14:10.467Z,99889.53
2022-08-07T12:16:50.939Z,99881.97
2022-08-07T12:19:35.576Z,99881.81
2022-08-07T12:22:55.848Z,99885.16
2022-08-07T12:26:21.524Z,99891.34
2022-08-07T12:28:31.373Z,99882.56
2022-08-07T12:31:05.331Z,99876.28
2022-08-07T12:34:01.145Z,99880.44
2022-08-07T12:36:32.668Z,99873.13
2022-08-07T12:39:02.505Z,99874.94
2022-08-07T12:41:42.752Z,99872.25
2022-08-07T12:44:18.612Z,99869.25
2022-08-07T12:47:21.762Z,99860.31
2022-08-07T12:50:38.293Z,99864.69
2022-08-07T12:53:05.207Z,99861.59
2022-08-07T12:56:10.266Z,99858.91
2022-08-07T12:58:42.946Z,99853.66
2022-08-07T13:01:50.464Z,99852.91
2022-08-07T13:04:44.164Z,99848.88
2022-08-07T13:08:12.354Z,99830.75
2022-08-07T13:10:58.894Z,99848.88
2022-08-07T13:13:48.246Z,99845.31
2022-08-07T13:16:29.591Z,99846.19
2022-08-07T13:19:21.882Z,99843.69
2022-08-07T13:22:19.822Z,99828.84
2022-08-07T13:25:04.247Z,99827.47
2022-08-07T13:28:10.680Z,99831.53
2022-08-07T13:30:43.821Z,99823.47
2022-08-07T13:34:30.086Z,99820.00
2022-08-07T13:36:43.617Z,99819.22
2022-08-07T13:39:49.109Z,99813.00
2022-08-07T13:42:09.932Z,99820.84
2022-08-07T13:44:39.496Z,99814.84
2022-08-07T13:47:09.866Z,99817.06
2022-08-07T13:50:35.582Z,99812.88
2022-08-07T13:52:40.755Z,99808.81
2022-08-07T13:55:25.479Z,99799.59
2022-08-07T13:58:04.626Z,99799.00
2022-08-07T14:00:39.619Z,99792.38
2022-08-07T14:03:30.036Z,99794.66
2022-08-07T14:06:13.807Z,99792.50
2022-08-07T14:08:46.049Z,99791.69
2022-08-07T14:11:22.841Z,99787.03
2022-08-07T14:13:54.364Z,99788.78
2022-08-07T14:16:31.133Z,99785.06
2022-08-07T14:19:01.508Z,99784.13
2022-08-07T14:22:04.283Z,99791.09
2022-08-07T14:24:41.223Z,99787.50
2022-08-07T14:27:16.147Z,99780.16
2022-08-07T14:30:09.926Z,99776.91
2022-08-07T14:32:45.288Z,99784.34
2022-08-07T14:35:42.796Z,99772.38
2022-08-07T14:38:09.352Z,99771.25
2022-08-07T14:40:55.293Z,99772.78
2022-08-07T14:43:55.533Z,99768.69
2022-08-07T14:46:11.607Z,99770.53
2022-08-07T14:48:48.366Z,99761.25
2022-08-07T14:51:22.385Z,99760.06
2022-08-07T14:56:41.466Z,99761.13
2022-08-07T14:59:13.680Z,99760.69
2022-08-07T15:02:31.727Z,99751.69
2022-08-07T15:04:57.196Z,99748.25
2022-08-07T15:07:47.394Z,99749.66
2022-08-07T15:13:05.806Z,99744.91
2022-08-07T15:13:16.447Z,99751.50
2022-08-07T15:15:52.600Z,99741.25
2022-08-07T15:18:30.238Z,99746.38
2022-08-07T15:21:07.998Z,99748.03
2022-08-07T15:26:44.475Z,99741.91
2022-08-07T15:32:05.569Z,99743.41
2022-08-07T15:38:04.476Z,99735.13
2022-08-07T15:40:34.723Z,99725.16
2022-08-07T15:43:53.314Z,99727.59
2022-08-07T15:46:34.332Z,99729.19
2022-08-07T15:49:12.844Z,99732.22
2022-08-07T15:54:30.904Z,99725.00
2022-08-07T15:57:02.922Z,99726.66
2022-08-07T15:59:39.148Z,99722.53
2022-08-07T16:02:09.217Z,99713.72
2022-08-07T16:04:42.619Z,99718.75
2022-08-07T16:08:28.416Z,99708.34
2022-08-07T16:10:14.724Z,99704.00
2022-08-07T16:14:00.068Z,99709.28
2022-08-07T16:16:42.772Z,99710.31
2022-08-07T16:19:42.910Z,99711.41
2022-08-07T16:22:36.431Z,99708.16
2022-08-07T16:25:55.035Z,99703.25
2022-08-07T16:30:06.824Z,99710.47
2022-08-07T16:32:34.810Z,99698.34
2022-08-07T16:35:58.711Z,99713.00
2022-08-07T16:38:50.754Z,99711.34
2022-08-07T16:41:41.554Z,99710.03
2022-08-07T16:44:55.490Z,99715.16
2022-08-07T16:47:52.921Z,99705.00
2022-08-07T16:50:52.744Z,99709.38
2022-08-07T16:54:02.714Z,99705.47
2022-08-07T16:56:55.524Z,99704.34
2022-08-07T16:59:50.326Z,99712.97
2022-08-07T17:02:53.350Z,99710.09
2022-08-07T17:06:19.466Z,99700.53
2022-08-07T17:09:13.890Z,99705.91
2022-08-07T17:12:34.490Z,99703.53
2022-08-07T17:15:15.570Z,99705.84
2022-08-07T17:17:48.034Z,99701.50
2022-08-07T17:20:30.003Z,99696.19
2022-08-07T17:23:12.824Z,99709.03
2022-08-07T17:25:56.161Z,99706.56
2022-08-07T17:28:49.906Z,99707.19
2022-08-07T17:31:22.761Z,99707.72
2022-08-07T17:34:17.938Z,99709.78
2022-08-07T17:37:08.958Z,99705.81
2022-08-07T17:39:57.754Z,99699.13
2022-08-07T17:42:59.383Z,99704.53
2022-08-07T17:45:35.108Z,99710.78
2022-08-07T17:48:31.115Z,99717.81
2022-08-07T17:52:00.841Z,99716.88
2022-08-07T17:54:29.548Z,99719.50
2022-08-07T17:57:19.119Z,99716.91
2022-08-07T17:59:52.223Z,99712.75
2022-08-07T18:02:41.324Z,99714.13
2022-08-07T18:06:03.467Z,99713.84
2022-08-07T18:08:31.211Z,99703.50
2022-08-07T18:12:08.365Z,99715.31
2022-08-07T18:14:24.353Z,99719.44
2022-08-07T18:16:57.387Z,99712.47
2022-08-07T18:21:05.947Z,99713.69
2022-08-07T18:22:40.032Z,99711.31
2022-08-07T18:25:19.393Z,99712.84
2022-08-07T18:27:54.068Z,99718.91
2022-08-07T18:30:38.555Z,99719.09
2022-08-07T18:33:37.879Z,99727.00
2022-08-07T18:36:32.856Z,99736.06
2022-08-07T18:40:06.915Z,99726.84
2022-08-07T18:42:07.159Z,99741.56
2022-08-07T18:45:43.814Z,99741.91
2022-08-07T18:49:03.677Z,99740.72
2022-08-07T18:51:14.900Z,99752.75
2022-08-07T18:54:03.346Z,99750.53
2022-08-07T18:57:23.413Z,99759.22
2022-08-07T19:00:33.200Z,99748.22
2022-08-07T19:03:03.174Z,99761.72
2022-08-07T19:06:03.498Z,99759.47
2022-08-07T19:08:47.485Z,99767.91
2022-08-07T19:11:35.779Z,99761.47
2022-08-07T19:14:39.097Z,99774.41
2022-08-07T19:17:55.889Z,99779.84
2022-08-07T19:20:29.032Z,99780.41
2022-08-07T19:23:56.912Z,99783.31
2022-08-07T19:26:24.957Z,99788.59
2022-08-07T19:30:54.223Z,99800.97
2022-08-07T19:32:07.969Z,99801.84
2022-08-07T19:34:39.370Z,99803.06
2022-08-07T19:37:17.323Z,99797.44
2022-08-07T19:39:56.405Z,99805.91
2022-08-07T19:42:30.283Z,99803.69
2022-08-07T19:45:09.386Z,99812.28
2022-08-07T19:47:42.106Z,99805.69
2022-08-07T19:50:41.574Z,99820.66
2022-08-07T19:52:58.638Z,99817.84
2022-08-07T19:55:56.435Z,99814.09
2022-08-07T19:58:15.781Z,99814.41
2022-08-07T20:00:55.327Z,99827.38
2022-08-07T20:03:35.079Z,99813.78
2022-08-07T20:06:03.902Z,99810.81
2022-08-07T20:08:35.930Z,99821.25
2022-08-07T20:11:10.184Z,99824.75
2022-08-07T20:13:51.704Z,99824.03
2022-08-07T20:16:34.801Z,99824.19
2022-08-07T20:19:06.084Z,99830.38
2022-08-07T20:21:41.974Z,99826.59
2022-08-07T20:24:20.073Z,99837.41
2022-08-07T20:26:50.251Z,99831.06
2022-08-07T20:29:48.703Z,99833.06
2022-08-07T20:32:23.011Z,99839.78
2022-08-07T20:34:56.353Z,99837.06
2022-08-07T20:37:59.058Z,99841.44
2022-08-07T20:40:33.541Z,99840.44
2022-08-07T20:43:02.732Z,99845.31
2022-08-07T20:45:33.808Z,99832.94
2022-08-07T20:48:28.881Z,99835.56
2022-08-07T20:50:59.010Z,99845.91
2022-08-07T20:54:04.420Z,99846.47
2022-08-07T20:56:16.197Z,99837.03
2022-08-07T20:58:46.632Z,99846.00
2022-08-07T21:01:19.355Z,99840.25
2022-08-07T21:04:13.065Z,99841.88
2022-08-07T21:06:46.058Z,99848.84
2022-08-07T21:09:20.219Z,99843.06
2022-08-07T21:11:52.586Z,99852.16
2022-08-07T21:14:32.809Z,99856.06
2022-08-07T21:18:00.890Z,99861.06
2022-08-07T21:20:04.551Z,99860.28
2022-08-07T21:22:38.998Z,99860.53
2022-08-07T21:25:13.648Z,99870.13
2022-08-07T21:28:01.772Z,99867.25
2022-08-07T21:31:03.171Z,99867.50
2022-08-07T21:33:58.456Z,99869.28
2022-08-07T21:36:51.133Z,99881.66
2022-08-07T21:39:47.772Z,99874.19
2022-08-07T21:42:42.605Z,99874.56
2022-08-07T21:46:08.813Z,99881.09
2022-08-07T21:48:42.324Z,99885.00
2022-08-07T21:51:27.479Z,99882.56
2022-08-07T21:54:05.062Z,99885.13
2022-08-07T21:57:16.131Z,99885.50
2022-08-07T22:00:25.184Z,99889.97
2022-08-07T22:03:30.567Z,99885.16
2022-08-07T22:06:07.553Z,99885.91
2022-08-07T22:08:56.549Z,99894.47
2022-08-07T22:11:30.550Z,99891.06
2022-08-07T22:14:15.264Z,99878.41
2022-08-07T22:16:58.561Z,99876.47
2022-08-07T22:19:57.254Z,99883.59
2022-08-07T22:22:30.044Z,99875.38
2022-08-07T22:24:59.897Z,99885.06
2022-08-07T22:27:34.206Z,99883.59
2022-08-07T22:30:20.807Z,99885.19
2022-08-07T22:33:02.947Z,99884.91
2022-08-07T22:35:40.295Z,99879.84
2022-08-07T22:38:28.513Z,99884.56
2022-08-07T22:41:03.214Z,99888.28
2022-08-07T22:43:40.855Z,99885.88
2022-08-07T22:47:06.293Z,99881.28
2022-08-07T22:50:06.561Z,99882.13
2022-08-07T22:52:51.072Z,99885.00
2022-08-07T22:55:29.770Z,99880.16
2022-08-07T22:58:37.636Z,99880.28
2022-08-07T23:01:50.302Z,99883.16
2022-08-07T23:04:58.362Z,99882.38
2022-08-07T23:07:42.030Z,99885.97
2022-08-07T23:10:52.397Z,99891.50
2022-08-07T23:13:29.453Z,99891.75
2022-08-07T23:16:46.419Z,99885.34
2022-08-07T23:19:48.403Z,99885.69
2022-08-07T23:22:32.241Z,99887.09
2022-08-07T23:25:01.340Z,99884.78
2022-08-07T23:28:21.053Z,99892.97
2022-08-07T23:31:11.255Z,99890.44
2022-08-07T23:34:34.700Z,99894.78
2022-08-07T23:37:20.421Z,99883.78
2022-08-07T23:40:14.396Z,99897.13
2022-08-07T23:43:04.343Z,99893.00
2022-08-07T23:46:23.796Z,99891.69
2022-08-07T23:49:50.788Z,99893.78
2022-08-07T23:53:00.749Z,99896.56
2022-08-07T23:55:47.189Z,99892.69
2022-08-07T23:58:54.675Z,99897.44
